F/V Berriz Patxiku — ECES — position and weather

sailwx.info

Track history (hours):
 
Tides and Currents Weather Stations Pressure Air Temp Water Temp Dewpoint Dewpoint Depression Visibility Wind Speed Wind Dir Waves Ship Positions

F/V Berriz Patxiku

Last reported at 2014-Sep-16 09:19 UTC. Time now 2014-Sep-16 21:33 UTC.
Position N 43°37' W 001°59'.

Length 30 m.

Type: Fishing. MMSI: 224106260.

Date/timePositionNaut miles runAvg speedWind from/ knotsBaromVisibWave heightAir tempDewpointWater temp
2014-Sep-16 09:19N 43°37' W 001°59'810.2
2014-Sep-16 08:33N 43°44' W 001°54'1010.0
2014-Sep-16 07:33N 43°53' W 001°48'1410.1
2014-Sep-16 06:13N 44°05' W 001°40'2 2.4
2014-Sep-16 05:33N 44°07' W 001°38'1 0.8
2014-Sep-16 04:33N 44°06' W 001°39'1 0.8
2014-Sep-16 03:25N 44°06' W 001°41'7 6.9
2014-Sep-16 02:22N 44°14' W 001°38'8 9.6
2014-Sep-16 01:33N 44°21' W 001°36'1010.1
2014-Sep-16 00:33N 44°31' W 001°32'7 6.8
2014-Sep-15 23:33N 44°37' W 001°28'4 4.4
2014-Sep-15 22:33N 44°33' W 001°26'4 4.0
2014-Sep-15 21:33N 44°29' W 001°28'8 8.1
2014-Sep-15 20:33N 44°21' W 001°28'8 7.9
2014-Sep-15 19:34N 44°13' W 001°30'4 3.5
2014-Sep-15 18:33N 44°10' W 001°31'1 1.0
2014-Sep-15 17:33N 44°11' W 001°31'1 1.0
2014-Sep-15 16:34N 44°12' W 001°31'1 0.9
2014-Sep-15 15:33N 44°13' W 001°31'1 0.8
2014-Sep-15 14:33N 44°13' W 001°32'1 0.5
2014-Sep-15 13:33N 44°14' W 001°33'1 0.6
2014-Sep-15 12:33N 44°14' W 001°32'3 2.8
2014-Sep-15 11:33N 44°14' W 001°28'1 0.6
2014-Sep-15 10:19N 44°15' W 001°29'0 0.6
2014-Sep-15 09:31N 44°15' W 001°29'1 0.8
2014-Sep-15 08:33N 44°16' W 001°30'1 0.6
2014-Sep-15 07:32N 44°16' W 001°31'1 0.7
2014-Sep-15 06:32N 44°16' W 001°31'7 3.1
2014-Sep-15 04:26N 44°22' W 001°27'10 7.8
2014-Sep-15 03:06N 44°12' W 001°29'5 7.9
2014-Sep-15 02:26N 44°17' W 001°30'5 6.2
2014-Sep-15 01:33N 44°23' W 001°28'17 8.0
2014-Sep-14 23:22N 44°05' W 001°32'7 9.2
2014-Sep-14 22:33N 43°59' W 001°37'11 9.2
2014-Sep-14 21:25N 43°50' W 001°45'8 9.2
2014-Sep-14 20:33N 43°43' W 001°50'  
2014-Sep-12 16:29N 43°18' W 002°12'1 1.2
2014-Sep-12 15:33N 43°18' W 002°10'1 1.2
2014-Sep-12 14:33N 43°18' W 002°12'0 0.1
2014-Sep-12 13:33N 43°18' W 002°12'69 8.4
2014-Sep-12 05:19N 44°20' W 001°28'0 0.4
2014-Sep-12 04:33N 44°20' W 001°28'6 5.3
2014-Sep-12 03:31N 44°15' W 001°32'8 8.5
2014-Sep-12 02:32N 44°07' W 001°37'14 2.4
2014-Sep-11 20:33N 43°54' W 001°41'9 8.8
2014-Sep-11 19:34N 43°45' W 001°43'10 8.3
2014-Sep-11 18:22N 43°36' W 001°47'25 6.5
2014-Sep-11 14:33N 43°18' W 002°12'0 0.0
2014-Sep-11 13:33N 43°18' W 002°12'0 0.0
2014-Sep-11 12:33N 43°18' W 002°12'0 0.0
2014-Sep-11 11:32N 43°18' W 002°12'49 9.6
2014-Sep-11 06:26N 44°00' W 001°37'3 3.0
2014-Sep-11 05:33N 44°03' W 001°35'1 1.0
2014-Sep-11 04:33N 44°03' W 001°36'3 2.7
2014-Sep-11 03:33N 44°01' W 001°39'5 4.6
2014-Sep-11 02:33N 44°04' W 001°34'7 7.2
2014-Sep-11 01:33N 44°10' W 001°39'2 2.3
2014-Sep-11 00:33N 44°12' W 001°39'9 9.2
2014-Sep-10 23:34N 44°22' W 001°37'4 4.3
2014-Sep-10 22:34N 44°26' W 001°37'10 9.7
2014-Sep-10 21:31N 44°16' W 001°39'50 9.4
2014-Sep-10 16:15N 43°30' W 002°05'48 6.0
2014-Sep-10 08:16N 44°16' W 001°44'710.5
2014-Sep-10 07:33N 44°23' W 001°40'1110.7
2014-Sep-10 06:33N 44°33' W 001°35'8 8.3
2014-Sep-10 05:34N 44°40' W 001°31'1 0.6
2014-Sep-10 04:33N 44°41' W 001°32'2 2.2
2014-Sep-10 03:34N 44°41' W 001°35'0 0.4
2014-Sep-10 02:34N 44°41' W 001°36'1 1.3
2014-Sep-10 01:34N 44°41' W 001°34'4 3.6
2014-Sep-10 00:33N 44°37' W 001°34'8 8.4
2014-Sep-09 23:33N 44°29' W 001°33'5 5.0
2014-Sep-09 22:33N 44°34' W 001°31'6 6.3
2014-Sep-09 21:33N 44°28' W 001°31'4 4.3
2014-Sep-09 20:33N 44°24' W 001°27'8 7.5
2014-Sep-09 19:33N 44°17' W 001°30'7 7.2
2014-Sep-09 18:33N 44°10' W 001°34'8 7.9
2014-Sep-09 17:34N 44°03' W 001°39'9 8.7
2014-Sep-09 16:33N 43°56' W 001°45'9 8.9
2014-Sep-09 15:34N 43°48' W 001°51'  
Track history (hours):
 
Tides and Currents Weather Stations Pressure Air Temp Water Temp Dewpoint Dewpoint Depression Visibility Wind Speed Wind Dir Waves Ship Positions

F/V Berriz Patxiku

Last reported at 2014-Sep-16 09:19 UTC. Time now 2014-Sep-16 21:33 UTC.
Position N 43°37' W 001°59'.

Length 30 m.

Type: Fishing. MMSI: 224106260.

Date/timePositionNaut miles runAvg speedWind from/ knotsBaromVisibWave heightAir tempDewpointWater temp
2014-Sep-16 09:19N 43°37' W 001°59'810.2
2014-Sep-16 08:33N 43°44' W 001°54'1010.0
2014-Sep-16 07:33N 43°53' W 001°48'1410.1
2014-Sep-16 06:13N 44°05' W 001°40'2 2.4
2014-Sep-16 05:33N 44°07' W 001°38'1 0.8
2014-Sep-16 04:33N 44°06' W 001°39'1 0.8
2014-Sep-16 03:25N 44°06' W 001°41'7 6.9
2014-Sep-16 02:22N 44°14' W 001°38'8 9.6
2014-Sep-16 01:33N 44°21' W 001°36'1010.1
2014-Sep-16 00:33N 44°31' W 001°32'7 6.8
2014-Sep-15 23:33N 44°37' W 001°28'4 4.4
2014-Sep-15 22:33N 44°33' W 001°26'4 4.0
2014-Sep-15 21:33N 44°29' W 001°28'8 8.1
2014-Sep-15 20:33N 44°21' W 001°28'8 7.9
2014-Sep-15 19:34N 44°13' W 001°30'4 3.5
2014-Sep-15 18:33N 44°10' W 001°31'1 1.0
2014-Sep-15 17:33N 44°11' W 001°31'1 1.0
2014-Sep-15 16:34N 44°12' W 001°31'1 0.9
2014-Sep-15 15:33N 44°13' W 001°31'1 0.8
2014-Sep-15 14:33N 44°13' W 001°32'1 0.5
2014-Sep-15 13:33N 44°14' W 001°33'1 0.6
2014-Sep-15 12:33N 44°14' W 001°32'3 2.8
2014-Sep-15 11:33N 44°14' W 001°28'1 0.6
2014-Sep-15 10:19N 44°15' W 001°29'0 0.6
2014-Sep-15 09:31N 44°15' W 001°29'1 0.8
2014-Sep-15 08:33N 44°16' W 001°30'1 0.6
2014-Sep-15 07:32N 44°16' W 001°31'1 0.7
2014-Sep-15 06:32N 44°16' W 001°31'7 3.1
2014-Sep-15 04:26N 44°22' W 001°27'10 7.8
2014-Sep-15 03:06N 44°12' W 001°29'5 7.9
2014-Sep-15 02:26N 44°17' W 001°30'5 6.2
2014-Sep-15 01:33N 44°23' W 001°28'17 8.0
2014-Sep-14 23:22N 44°05' W 001°32'7 9.2
2014-Sep-14 22:33N 43°59' W 001°37'11 9.2
2014-Sep-14 21:25N 43°50' W 001°45'8 9.2
2014-Sep-14 20:33N 43°43' W 001°50'  
2014-Sep-12 16:29N 43°18' W 002°12'1 1.2
2014-Sep-12 15:33N 43°18' W 002°10'1 1.2
2014-Sep-12 14:33N 43°18' W 002°12'0 0.1
2014-Sep-12 13:33N 43°18' W 002°12'69 8.4
2014-Sep-12 05:19N 44°20' W 001°28'0 0.4
2014-Sep-12 04:33N 44°20' W 001°28'6 5.3
2014-Sep-12 03:31N 44°15' W 001°32'8 8.5
2014-Sep-12 02:32N 44°07' W 001°37'14 2.4
2014-Sep-11 20:33N 43°54' W 001°41'9 8.8
2014-Sep-11 19:34N 43°45' W 001°43'10 8.3
2014-Sep-11 18:22N 43°36' W 001°47'25 6.5
2014-Sep-11 14:33N 43°18' W 002°12'0 0.0
2014-Sep-11 13:33N 43°18' W 002°12'0 0.0
2014-Sep-11 12:33N 43°18' W 002°12'0 0.0
2014-Sep-11 11:32N 43°18' W 002°12'49 9.6
2014-Sep-11 06:26N 44°00' W 001°37'3 3.0
2014-Sep-11 05:33N 44°03' W 001°35'1 1.0
2014-Sep-11 04:33N 44°03' W 001°36'3 2.7
2014-Sep-11 03:33N 44°01' W 001°39'5 4.6
2014-Sep-11 02:33N 44°04' W 001°34'7 7.2
2014-Sep-11 01:33N 44°10' W 001°39'2 2.3
2014-Sep-11 00:33N 44°12' W 001°39'9 9.2
2014-Sep-10 23:34N 44°22' W 001°37'4 4.3
2014-Sep-10 22:34N 44°26' W 001°37'10 9.7
2014-Sep-10 21:31N 44°16' W 001°39'50 9.4
2014-Sep-10 16:15N 43°30' W 002°05'48 6.0
2014-Sep-10 08:16N 44°16' W 001°44'710.5
2014-Sep-10 07:33N 44°23' W 001°40'1110.7
2014-Sep-10 06:33N 44°33' W 001°35'8 8.3
2014-Sep-10 05:34N 44°40' W 001°31'1 0.6
2014-Sep-10 04:33N 44°41' W 001°32'2 2.2
2014-Sep-10 03:34N 44°41' W 001°35'0 0.4
2014-Sep-10 02:34N 44°41' W 001°36'1 1.3
2014-Sep-10 01:34N 44°41' W 001°34'4 3.6
2014-Sep-10 00:33N 44°37' W 001°34'8 8.4
2014-Sep-09 23:33N 44°29' W 001°33'5 5.0
2014-Sep-09 22:33N 44°34' W 001°31'6 6.3
2014-Sep-09 21:33N 44°28' W 001°31'4 4.3
2014-Sep-09 20:33N 44°24' W 001°27'8 7.5
2014-Sep-09 19:33N 44°17' W 001°30'7 7.2
2014-Sep-09 18:33N 44°10' W 001°34'8 7.9
2014-Sep-09 17:34N 44°03' W 001°39'9 8.7
2014-Sep-09 16:33N 43°56' W 001°45'9 8.9
2014-Sep-09 15:34N 43°48' W 001°51'  

Dump ship's entire track history